Perry, Utah
Current Conditions -  °F | °C
As of 4:55 AM on Wednesday 28 Jan 2015 (Local Time) from KBMC Reporting Station
Overcast Overcast  
Wind Chill:   Ceiling: 3900
Heat Index:   Visibility: 10mi
Dew Point:   Wind: 5mph
Humidity: 81%   Direction: 180°S
Pressure: 30.21"   Gusts: NA
Location:  41.4833°N, 112.095°W
Report Text: KBMC 281155Z AUTO 18004KT 10SM OVC039 06/03 A3021 RMK AO1 T00600029 10107 21077
Loading
Personal Weather Stations






























Interactive Weather Map New forecast layout! Learn more

10-Day Weather Forecast

Advertisements
Track Severe Weather on mobile